Time;durP1;ratioP1;P1;durP2;ratioP2;P2;SDS_P1;SDS_P2;PMS_P1;PMS_P2;Temp;Humidity;BMP_temperature;BMP_pressure;BME280_temperature;BME280_humidity;BME280_pressure;Samples;Min_cycle;Max_cycle;Signal;HPM_P1;HPM_P2
2022/05/06 00:00:54;;;;;;;0.70;0.70;;;2.70;99.90;;;;;;5014378;28;20199;-79
2022/05/06 00:03:19;;;;;;;0.68;0.68;;;2.70;99.90;;;;;;4998354;28;20277;-79
2022/05/06 00:05:45;;;;;;;0.70;0.70;;;2.60;99.90;;;;;;5015861;28;20278;-79
2022/05/06 00:08:11;;;;;;;0.75;0.75;;;2.60;99.90;;;;;;4998220;28;20207;-79
2022/05/06 00:10:37;;;;;;;0.70;0.70;;;2.60;99.90;;;;;;4998215;28;20709;-79
2022/05/06 00:13:02;;;;;;;0.70;0.70;;;2.60;99.90;;;;;;5018679;28;20226;-79
2022/05/06 00:15:29;;;;;;;0.90;0.90;;;2.60;99.90;;;;;;5016861;28;20673;-79
2022/05/06 00:17:55;;;;;;;0.80;0.80;;;2.50;99.90;;;;;;5017607;28;20199;-79
2022/05/06 00:20:20;;;;;;;0.60;0.60;;;2.50;99.90;;;;;;5029948;28;20201;-79
2022/05/06 00:22:46;;;;;;;0.70;0.70;;;2.50;99.90;;;;;;5037477;28;20200;-79
2022/05/06 00:25:12;;;;;;;0.70;0.70;;;2.40;99.90;;;;;;5037357;28;20207;-79
2022/05/06 00:27:41;;;;;;;0.65;0.65;;;2.40;99.90;;;;;;5036991;28;20296;-79
2022/05/06 00:30:08;;;;;;;0.60;0.60;;;2.40;99.90;;;;;;5037195;28;20558;-79
2022/05/06 00:32:33;;;;;;;0.70;0.70;;;2.30;99.90;;;;;;5036906;28;20189;-79
2022/05/06 00:35:00;;;;;;;0.70;0.70;;;2.30;99.90;;;;;;5055194;28;20643;-79
2022/05/06 00:37:25;;;;;;;0.70;0.70;;;2.30;99.90;;;;;;5036927;28;20201;-79
2022/05/06 00:39:51;;;;;;;1.10;1.10;;;2.30;99.90;;;;;;5036820;28;20204;-79
2022/05/06 00:42:17;;;;;;;0.98;0.95;;;2.40;99.90;;;;;;5036862;28;20217;-79
2022/05/06 00:44:43;;;;;;;0.60;0.60;;;2.40;99.90;;;;;;5054637;28;20197;-79
2022/05/06 00:47:09;;;;;;;2.50;1.83;;;2.30;99.90;;;;;;5036148;28;20560;-79
2022/05/06 00:49:36;;;;;;;0.70;0.70;;;2.30;99.90;;;;;;5036190;28;20194;-79
2022/05/06 00:52:04;;;;;;;0.70;0.70;;;2.20;99.90;;;;;;5036656;28;20556;-79
2022/05/06 00:54:33;;;;;;;0.70;0.70;;;2.20;99.90;;;;;;5034518;28;20205;-79
2022/05/06 00:57:00;;;;;;;3.22;2.35;;;2.10;99.90;;;;;;5053195;28;20198;-78
2022/05/06 00:59:26;;;;;;;0.77;0.77;;;2.10;99.90;;;;;;5052910;28;20209;-79
2022/05/06 01:01:52;;;;;;;0.60;0.60;;;2.00;99.90;;;;;;5054016;28;20686;-79
2022/05/06 01:04:18;;;;;;;0.70;0.70;;;2.10;99.90;;;;;;5054303;28;20217;-79
2022/05/06 01:06:45;;;;;;;0.60;0.60;;;2.10;99.90;;;;;;5036062;28;20209;-79
2022/05/06 01:09:18;;;;;;;0.60;0.60;;;2.10;99.90;;;;;;5036255;28;20723;-79
2022/05/06 01:11:44;;;;;;;0.70;0.70;;;2.10;99.90;;;;;;5054010;28;20267;-79
2022/05/06 01:14:11;;;;;;;0.73;0.73;;;2.10;99.90;;;;;;5036110;28;20770;-79
2022/05/06 01:16:38;;;;;;;0.60;0.60;;;2.10;99.90;;;;;;5052545;28;20233;-79
2022/05/06 01:19:05;;;;;;;0.82;0.82;;;2.00;99.90;;;;;;5054179;28;20702;-79
2022/05/06 01:21:35;;;;;;;0.80;0.80;;;2.00;99.90;;;;;;5053408;28;20189;-79
2022/05/06 01:24:02;;;;;;;0.60;0.60;;;1.90;99.90;;;;;;5053095;28;20531;-79
2022/05/06 01:26:59;;;;;;;0.75;0.75;;;1.90;99.90;;;;;;5052362;28;20201;-78
2022/05/06 01:29:26;;;;;;;0.60;0.60;;;1.80;99.90;;;;;;5053359;28;20272;-79
2022/05/06 01:31:53;;;;;;;0.70;0.70;;;1.90;99.90;;;;;;5051995;28;20201;-78
2022/05/06 01:34:22;;;;;;;1.67;1.45;;;1.90;99.90;;;;;;5052382;28;20678;-79
2022/05/06 01:36:51;;;;;;;2.83;2.55;;;1.90;99.90;;;;;;5053922;28;20194;-79
2022/05/06 01:39:19;;;;;;;0.95;0.95;;;1.90;99.90;;;;;;5053473;28;20200;-79
2022/05/06 01:41:48;;;;;;;0.80;0.80;;;1.80;99.90;;;;;;5052391;28;20280;-78
2022/05/06 01:44:17;;;;;;;0.70;0.70;;;1.80;99.90;;;;;;5052504;28;20664;-77
2022/05/06 01:46:43;;;;;;;0.70;0.70;;;1.70;99.90;;;;;;5052087;28;20210;-78
2022/05/06 01:49:10;;;;;;;0.80;0.80;;;1.70;99.90;;;;;;5049927;28;20202;-78
2022/05/06 01:51:38;;;;;;;0.90;0.90;;;1.70;99.90;;;;;;5068801;28;20194;-77
2022/05/06 01:54:05;;;;;;;0.70;0.70;;;1.60;99.90;;;;;;5053122;28;20254;-77
2022/05/06 01:56:30;;;;;;;0.60;0.60;;;1.60;99.90;;;;;;5053056;28;20200;-78
2022/05/06 01:58:56;;;;;;;0.60;0.60;;;1.60;99.90;;;;;;5048534;28;20193;-79
2022/05/06 02:01:22;;;;;;;0.80;0.80;;;1.50;99.90;;;;;;5045664;28;20235;-80
2022/05/06 02:06:32;;;;;;;0.50;0.50;;;1.40;99.90;;;;;;5073376;28;20204;-80
2022/05/06 02:08:57;;;;;;;0.70;0.70;;;1.40;99.90;;;;;;5072078;28;20189;-79
2022/05/06 02:11:23;;;;;;;0.60;0.60;;;1.30;99.90;;;;;;5071243;28;20640;-80
2022/05/06 02:13:49;;;;;;;0.70;0.70;;;1.40;99.90;;;;;;5056027;28;20314;-79
2022/05/06 02:16:16;;;;;;;0.70;0.70;;;1.30;99.90;;;;;;5052052;28;20733;-79
2022/05/06 02:18:42;;;;;;;0.70;0.70;;;1.30;99.90;;;;;;5053035;28;20221;-79
2022/05/06 02:21:08;;;;;;;0.90;0.90;;;1.30;99.90;;;;;;5051895;28;20228;-79
2022/05/06 02:23:34;;;;;;;0.70;0.70;;;1.20;99.90;;;;;;5051681;28;20240;-79
2022/05/06 02:26:00;;;;;;;0.63;0.63;;;1.20;99.90;;;;;;5052972;28;20185;-79
2022/05/06 02:28:26;;;;;;;0.70;0.70;;;1.20;99.90;;;;;;5051587;28;20204;-79
2022/05/06 02:33:36;;;;;;;0.75;0.75;;;1.10;99.90;;;;;;5053265;28;20275;-79
2022/05/06 02:36:03;;;;;;;0.70;0.70;;;1.10;99.90;;;;;;5055384;28;20232;-79
2022/05/06 02:38:28;;;;;;;0.63;0.63;;;1.10;99.90;;;;;;5055706;28;20196;-79
2022/05/06 02:40:55;;;;;;;0.68;0.68;;;1.10;99.90;;;;;;5055631;28;20189;-79
2022/05/06 02:43:21;;;;;;;0.80;0.80;;;1.10;99.90;;;;;;5055629;28;20193;-79
2022/05/06 02:45:47;;;;;;;0.80;0.80;;;1.10;99.90;;;;;;5053568;28;20255;-79
2022/05/06 02:48:12;;;;;;;0.68;0.68;;;1.10;99.90;;;;;;5072253;28;20220;-79
2022/05/06 02:50:38;;;;;;;0.70;0.70;;;1.10;99.90;;;;;;5056178;28;20232;-79
2022/05/06 02:53:04;;;;;;;0.82;0.82;;;1.10;99.90;;;;;;5072611;28;20698;-79
2022/05/06 02:55:31;;;;;;;0.70;0.70;;;1.10;99.90;;;;;;5072131;28;20194;-79
2022/05/06 02:57:57;;;;;;;8.15;1.38;;;1.20;99.90;;;;;;5056963;28;20226;-79
2022/05/06 03:00:23;;;;;;;0.70;0.70;;;1.20;99.90;;;;;;5054903;28;20652;-79
2022/05/06 03:02:50;;;;;;;0.60;0.60;;;1.20;99.90;;;;;;5068506;28;20201;-79
2022/05/06 03:05:16;;;;;;;0.70;0.70;;;1.30;99.90;;;;;;5036040;28;20202;-79
2022/05/06 03:07:42;;;;;;;0.70;0.70;;;1.30;99.90;;;;;;5036804;28;20218;-79
2022/05/06 03:10:09;;;;;;;0.70;0.70;;;1.30;99.90;;;;;;5052429;28;20194;-79
2022/05/06 03:12:35;;;;;;;0.80;0.80;;;1.30;99.90;;;;;;5048735;28;20220;-79
2022/05/06 03:15:04;;;;;;;1.67;1.58;;;1.40;99.90;;;;;;5055128;28;20291;-79
2022/05/06 03:17:34;;;;;;;0.70;0.70;;;1.40;99.90;;;;;;5048259;28;20204;-79
2022/05/06 03:20:01;;;;;;;5.07;2.45;;;1.40;99.90;;;;;;5055223;28;20198;-79
2022/05/06 03:22:27;;;;;;;0.90;0.90;;;1.40;99.90;;;;;;5047527;28;20225;-79
2022/05/06 03:24:53;;;;;;;0.90;0.90;;;1.50;99.90;;;;;;5054695;28;20209;-79
2022/05/06 03:30:04;;;;;;;1.42;1.33;;;1.60;99.90;;;;;;5055876;28;20215;-78
2022/05/06 03:32:31;;;;;;;0.70;0.70;;;1.70;99.90;;;;;;5055937;28;20195;-79
2022/05/06 03:34:57;;;;;;;0.60;0.60;;;1.80;99.90;;;;;;5056248;28;20271;-79
2022/05/06 03:37:23;;;;;;;0.80;0.80;;;1.80;99.90;;;;;;5055813;28;20201;-79
2022/05/06 03:39:49;;;;;;;0.60;0.60;;;1.90;99.90;;;;;;5050419;28;20202;-78
2022/05/06 03:42:14;;;;;;;0.60;0.60;;;2.00;99.90;;;;;;5044486;28;20209;-79
2022/05/06 03:44:40;;;;;;;0.70;0.70;;;2.10;99.90;;;;;;5036068;28;20202;-79
2022/05/06 03:47:06;;;;;;;0.80;0.80;;;2.20;99.90;;;;;;5051788;28;20201;-79
2022/05/06 03:49:32;;;;;;;0.80;0.80;;;2.30;99.90;;;;;;5054190;28;20342;-78
2022/05/06 03:51:58;;;;;;;1.58;1.48;;;2.40;99.90;;;;;;5054405;28;20193;-78
2022/05/06 03:54:24;;;;;;;0.68;0.68;;;2.60;99.90;;;;;;5054604;28;20277;-78
2022/05/06 03:56:50;;;;;;;1.80;1.13;;;2.70;99.90;;;;;;5054307;28;20286;-78
2022/05/06 03:59:16;;;;;;;0.90;0.90;;;2.70;99.90;;;;;;5054048;28;20229;-78
2022/05/06 04:01:42;;;;;;;1.33;1.25;;;2.90;99.90;;;;;;5070210;28;20575;-79
2022/05/06 04:04:07;;;;;;;0.70;0.70;;;3.00;99.90;;;;;;5054901;28;20220;-78
2022/05/06 04:06:33;;;;;;;0.88;0.88;;;3.20;99.90;;;;;;5053728;28;20549;-78
2022/05/06 04:08:59;;;;;;;1.20;1.20;;;3.30;99.90;;;;;;5055455;28;20188;-78
2022/05/06 04:11:25;;;;;;;7.47;2.35;;;3.50;99.90;;;;;;5053537;28;20198;-78
2022/05/06 04:13:51;;;;;;;0.85;0.85;;;3.60;99.90;;;;;;5053942;28;20290;-78
2022/05/06 04:16:16;;;;;;;0.65;0.65;;;3.60;99.90;;;;;;5054197;28;20205;-78
2022/05/06 04:18:42;;;;;;;0.70;0.70;;;3.70;99.90;;;;;;5053845;28;20193;-79
2022/05/06 04:23:52;;;;;;;0.70;0.70;;;3.90;99.90;;;;;;5055599;28;20224;-79
2022/05/06 04:26:18;;;;;;;0.70;0.70;;;4.00;99.90;;;;;;5053469;28;20664;-79
2022/05/06 04:28:44;;;;;;;0.70;0.70;;;4.10;99.90;;;;;;5053667;28;20205;-79
2022/05/06 04:31:10;;;;;;;0.90;0.90;;;4.10;99.90;;;;;;5053589;28;20201;-78
2022/05/06 04:33:42;;;;;;;0.95;0.95;;;4.10;99.90;;;;;;5053228;28;20201;-78
2022/05/06 04:36:07;;;;;;;1.98;1.38;;;4.20;99.90;;;;;;5053387;28;20190;-78
2022/05/06 04:38:33;;;;;;;0.80;0.80;;;4.20;99.90;;;;;;5054322;28;20596;-78
2022/05/06 04:41:01;;;;;;;1.15;0.95;;;4.40;99.90;;;;;;5069414;28;20664;-78
2022/05/06 04:43:27;;;;;;;0.90;0.90;;;4.40;99.90;;;;;;5069520;28;20673;-78
2022/05/06 04:45:54;;;;;;;0.80;0.80;;;4.50;99.90;;;;;;5053314;28;20549;-78
2022/05/06 04:48:20;;;;;;;0.90;0.90;;;4.60;99.90;;;;;;5054277;28;20205;-78
2022/05/06 04:50:47;;;;;;;1.00;1.00;;;4.70;99.90;;;;;;5054641;28;20234;-78
2022/05/06 04:53:14;;;;;;;0.98;0.98;;;4.80;99.90;;;;;;5051962;28;20676;-79
2022/05/06 04:55:48;;;;;;;21.52;2.33;;;4.90;99.90;;;;;;5047345;28;20505;-78
2022/05/06 04:58:16;;;;;;;0.80;0.80;;;4.90;99.90;;;;;;5051996;28;20203;-78
2022/05/06 05:00:42;;;;;;;1.45;1.35;;;5.00;99.90;;;;;;5054107;28;20189;-78
2022/05/06 05:03:08;;;;;;;0.75;0.75;;;5.10;99.90;;;;;;5029754;28;20652;-78
2022/05/06 05:05:33;;;;;;;0.70;0.70;;;5.20;99.90;;;;;;5032806;28;20252;-78
2022/05/06 05:08:00;;;;;;;0.80;0.80;;;5.30;99.90;;;;;;5049372;28;20581;-78
2022/05/06 05:10:25;;;;;;;0.80;0.80;;;5.30;99.90;;;;;;5032467;28;20194;-78
2022/05/06 05:12:51;;;;;;;1.05;1.05;;;5.30;99.90;;;;;;5049434;28;20221;-78
2022/05/06 05:15:17;;;;;;;0.70;0.70;;;5.30;99.90;;;;;;5032531;28;20246;-79
2022/05/06 05:17:44;;;;;;;0.75;0.75;;;5.30;99.90;;;;;;5032244;28;20629;-79
2022/05/06 05:20:11;;;;;;;0.75;0.75;;;5.40;99.90;;;;;;5049366;28;20198;-78
2022/05/06 05:22:37;;;;;;;0.70;0.70;;;5.50;99.90;;;;;;5033909;28;20190;-78
2022/05/06 05:25:04;;;;;;;0.80;0.80;;;5.40;99.90;;;;;;5032709;28;20412;-78
2022/05/06 05:27:30;;;;;;;0.82;0.82;;;5.40;99.90;;;;;;5031984;28;20295;-78
2022/05/06 05:29:57;;;;;;;0.77;0.77;;;5.50;99.90;;;;;;5032476;28;20198;-78
2022/05/06 05:32:24;;;;;;;0.80;0.80;;;5.60;99.90;;;;;;5032494;28;20634;-79
2022/05/06 05:34:50;;;;;;;0.60;0.60;;;5.70;99.90;;;;;;5061699;28;20208;-79
2022/05/06 05:37:15;;;;;;;1.00;0.93;;;5.70;99.90;;;;;;5053462;28;20197;-79
2022/05/06 05:39:41;;;;;;;0.85;0.85;;;5.70;99.90;;;;;;5068577;28;20204;-79
2022/05/06 05:42:07;;;;;;;0.70;0.70;;;5.90;99.90;;;;;;5052571;28;20201;-78
2022/05/06 05:50:06;;;;;;;1.25;1.15;;;6.20;99.90;;;;;;5053767;28;20231;-78
2022/05/06 05:52:33;;;;;;;0.70;0.70;;;6.20;99.90;;;;;;5045366;28;20190;-78
2022/05/06 05:54:59;;;;;;;0.70;0.70;;;6.20;99.90;;;;;;5052263;28;20208;-79
2022/05/06 05:57:24;;;;;;;1.00;1.00;;;6.30;99.90;;;;;;5040710;28;20643;-79
2022/05/06 05:59:50;;;;;;;0.68;0.68;;;6.40;99.90;;;;;;5036267;28;20553;-78
2022/05/06 06:02:19;;;;;;;0.80;0.80;;;6.40;99.90;;;;;;5067957;28;20208;-78
2022/05/06 06:04:45;;;;;;;4.43;2.70;;;6.50;99.90;;;;;;5051841;28;20254;-79
2022/05/06 06:07:11;;;;;;;1.52;1.42;;;6.40;99.90;;;;;;5053048;28;20557;-78
2022/05/06 06:09:37;;;;;;;1.20;1.20;;;6.50;99.90;;;;;;5051392;28;20596;-78
2022/05/06 06:12:03;;;;;;;1.10;1.00;;;6.50;99.90;;;;;;5053300;28;20197;-77
2022/05/06 06:14:29;;;;;;;0.70;0.70;;;6.60;99.90;;;;;;5050976;28;20232;-78
2022/05/06 06:16:56;;;;;;;0.95;0.95;;;6.50;99.90;;;;;;5052306;28;20190;-78
2022/05/06 06:19:21;;;;;;;1.27;1.20;;;6.50;99.90;;;;;;5052105;28;20568;-78
2022/05/06 06:21:47;;;;;;;0.90;0.90;;;6.50;99.90;;;;;;5052286;28;20197;-78
2022/05/06 06:24:13;;;;;;;0.70;0.70;;;6.60;99.90;;;;;;5067617;28;20201;-78
2022/05/06 06:26:39;;;;;;;0.70;0.70;;;6.50;99.90;;;;;;5052014;28;20314;-77
2022/05/06 06:29:05;;;;;;;0.80;0.80;;;6.70;99.90;;;;;;5067636;28;20201;-78
2022/05/06 06:31:32;;;;;;;1.10;1.00;;;6.60;99.90;;;;;;5036283;28;20217;-78
2022/05/06 06:34:01;;;;;;;7.25;1.25;;;6.70;99.90;;;;;;5032449;28;20220;-78
2022/05/06 06:36:27;;;;;;;0.93;0.93;;;6.50;99.90;;;;;;5051229;28;20737;-78
2022/05/06 06:38:54;;;;;;;1.27;1.17;;;6.60;99.90;;;;;;5046777;28;20204;-78
2022/05/06 06:41:20;;;;;;;0.70;0.70;;;6.80;99.90;;;;;;5051974;28;20251;-79
2022/05/06 06:43:49;;;;;;;0.90;0.90;;;7.00;99.90;;;;;;5045956;28;20193;-78
2022/05/06 06:46:16;;;;;;;0.60;0.60;;;7.00;99.90;;;;;;5050706;28;20194;-78
2022/05/06 06:48:42;;;;;;;0.88;0.88;;;7.10;99.90;;;;;;5045299;28;20244;-78
2022/05/06 06:51:08;;;;;;;0.70;0.70;;;7.30;99.90;;;;;;5050901;28;20196;-78
2022/05/06 06:53:34;;;;;;;1.25;1.15;;;7.30;99.90;;;;;;5043888;28;20637;-78
2022/05/06 06:55:59;;;;;;;0.70;0.70;;;7.20;99.90;;;;;;5051841;28;20200;-78
2022/05/06 06:58:25;;;;;;;0.70;0.70;;;7.20;99.90;;;;;;5050268;28;20201;-78
2022/05/06 07:00:52;;;;;;;0.93;0.93;;;7.30;99.90;;;;;;5050016;28;20290;-79
2022/05/06 07:03:18;;;;;;;0.73;0.68;;;7.50;99.90;;;;;;5051575;28;20200;-79
2022/05/06 07:13:57;;;;;;;1.23;1.13;;;8.10;99.90;;;;;;5006973;28;1280841;-78
2022/05/06 07:16:23;;;;;;;0.60;0.60;;;8.00;99.90;;;;;;5050887;28;20202;-78
2022/05/06 07:18:50;;;;;;;2.08;1.27;;;8.10;99.90;;;;;;5052500;28;20272;-78
2022/05/06 07:21:16;;;;;;;1.52;1.40;;;8.20;99.90;;;;;;5054195;28;20189;-79
2022/05/06 07:23:41;;;;;;;0.70;0.70;;;8.20;99.90;;;;;;5054072;28;20197;-78
2022/05/06 07:26:07;;;;;;;5.97;2.38;;;8.40;99.90;;;;;;5053690;28;20243;-78
2022/05/06 07:28:33;;;;;;;0.82;0.82;;;8.30;99.90;;;;;;5034613;28;20646;-78
2022/05/06 07:30:59;;;;;;;1.92;1.45;;;8.30;99.90;;;;;;5042811;28;20194;-78
2022/05/06 07:33:24;;;;;;;0.80;0.80;;;8.50;99.90;;;;;;5055623;28;20196;-78
2022/05/06 07:35:50;;;;;;;1.10;1.00;;;8.60;99.90;;;;;;5055941;28;20670;-78
2022/05/06 07:38:16;;;;;;;1.00;0.98;;;8.60;99.90;;;;;;5055856;28;20637;-79
2022/05/06 07:40:42;;;;;;;0.77;0.77;;;8.60;99.90;;;;;;5055765;28;20189;-78
2022/05/06 07:43:08;;;;;;;0.70;0.70;;;8.60;99.90;;;;;;5055695;28;20193;-79
2022/05/06 07:45:35;;;;;;;0.80;0.80;;;8.60;99.90;;;;;;5055717;28;20244;-78
2022/05/06 07:48:03;;;;;;;0.90;0.90;;;8.80;99.90;;;;;;5055517;28;20297;-78
2022/05/06 07:50:30;;;;;;;0.60;0.60;;;8.80;99.90;;;;;;5055182;28;20672;-78
2022/05/06 07:52:56;;;;;;;1.08;1.08;;;8.80;99.90;;;;;;5055355;28;20582;-78
2022/05/06 07:55:22;;;;;;;1.05;1.05;;;9.10;99.90;;;;;;5055238;28;20276;-78
2022/05/06 07:57:48;;;;;;;0.82;0.82;;;9.40;99.90;;;;;;5053690;28;20300;-79
2022/05/06 08:00:15;;;;;;;0.60;0.60;;;9.40;99.90;;;;;;5053893;28;20227;-78
2022/05/06 08:05:27;;;;;;;1.45;1.35;;;9.80;99.90;;;;;;5055140;28;20246;-79
2022/05/06 08:07:56;;;;;;;0.90;0.90;;;9.90;99.90;;;;;;5070406;28;20241;-78
2022/05/06 08:10:22;;;;;;;0.77;0.77;;;10.10;99.90;;;;;;5054786;28;20591;-79
2022/05/06 08:12:48;;;;;;;1.05;0.88;;;10.30;99.90;;;;;;5070562;28;20197;-79
2022/05/06 08:15:13;;;;;;;1.13;1.02;;;10.20;99.90;;;;;;5053898;28;20228;-79
2022/05/06 08:17:39;;;;;;;0.98;0.98;;;10.30;99.90;;;;;;5054835;28;20227;-78
2022/05/06 08:20:09;;;;;;;1.15;1.10;;;10.60;99.90;;;;;;5053955;28;20202;-78
2022/05/06 08:22:38;;;;;;;0.70;0.70;;;11.00;99.90;;;;;;5053394;28;20288;-78
2022/05/06 08:25:06;;;;;;;0.90;0.90;;;11.40;99.90;;;;;;5070342;28;20695;-78
2022/05/06 08:27:38;;;;;;;1.30;1.20;;;11.50;99.90;;;;;;5069767;28;20201;-78
2022/05/06 08:30:06;;;;;;;0.85;0.85;;;11.30;99.90;;;;;;5054776;28;20193;-78
2022/05/06 08:32:32;;;;;;;24.48;1.90;;;11.50;99.90;;;;;;5052355;28;20205;-78
2022/05/06 08:34:58;;;;;;;2.47;1.30;;;11.70;99.90;;;;;;5053549;28;20193;-79
2022/05/06 08:37:25;;;;;;;0.70;0.70;;;11.80;99.90;;;;;;5053101;28;20229;-80
2022/05/06 08:39:51;;;;;;;4.32;1.70;;;12.00;99.90;;;;;;5069555;28;20201;-79
2022/05/06 08:42:21;;;;;;;0.57;0.57;;;12.30;99.90;;;;;;5054711;28;20272;-79
2022/05/06 08:53:05;;;;;;;1.05;1.05;;;14.00;99.90;;;;;;5054198;28;20205;-79
2022/05/06 08:55:32;;;;;;;2.25;1.30;;;14.50;99.90;;;;;;5052790;28;20209;-79
2022/05/06 08:57:58;;;;;;;3.60;0.88;;;14.80;99.90;;;;;;5052918;28;20288;-79
2022/05/06 09:00:30;;;;;;;3.28;1.65;;;15.00;99.90;;;;;;5052636;28;20339;-79
2022/05/06 09:02:55;;;;;;;1.45;1.33;;;14.60;99.90;;;;;;5054421;28;20271;-79
2022/05/06 09:05:22;;;;;;;2.42;1.65;;;14.80;99.90;;;;;;5052556;28;20235;-79
2022/05/06 09:08:13;;;;;;;1.80;0.98;;;15.20;99.90;;;;;;5052691;28;20205;-79
2022/05/06 09:10:39;;;;;;;2.15;1.15;;;15.30;99.90;;;;;;5051914;28;20216;-78
2022/05/06 09:13:05;;;;;;;0.98;0.63;;;15.80;99.90;;;;;;5053954;28;20221;-78
2022/05/06 09:18:22;;;;;;;1.42;0.90;;;16.50;99.90;;;;;;5054199;28;20640;-78
2022/05/06 09:20:49;;;;;;;1.38;1.05;;;16.80;99.90;;;;;;5052401;28;20193;-79
2022/05/06 09:23:27;;;;;;;1.02;0.95;;;17.20;99.90;;;;;;5068839;28;20277;-79
2022/05/06 09:25:54;;;;;;;0.35;0.35;;;17.50;99.90;;;;;;5048952;28;20205;-79
2022/05/06 09:28:32;;;;;;;1.42;1.25;;;17.90;99.90;;;;;;5051985;28;20671;-79
2022/05/06 09:31:08;;;;;;;0.70;0.70;;;18.30;99.90;;;;;;5053479;28;20188;-78
2022/05/06 09:33:42;;;;;;;15.27;1.27;;;18.30;99.90;;;;;;5045842;28;20243;-79
2022/05/06 09:36:26;;;;;;;4.13;0.70;;;17.70;99.90;;;;;;5052098;28;20259;-79
2022/05/06 09:39:07;;;;;;;0.30;0.30;;;18.20;99.90;;;;;;5048336;28;20310;-79
2022/05/06 09:41:35;;;;;;;3.90;0.77;;;17.90;99.90;;;;;;5051692;28;20193;-79
2022/05/06 09:44:03;;;;;;;6.80;0.60;;;18.00;99.90;;;;;;5051601;28;20648;-78
2022/05/06 09:46:29;;;;;;;1.27;1.15;;;18.30;99.90;;;;;;5052992;28;20707;-79
2022/05/06 09:48:56;;;;;;;2.53;1.23;;;18.50;99.90;;;;;;5052120;28;20189;-79
2022/05/06 09:51:33;;;;;;;1.80;0.88;;;19.00;99.90;;;;;;5051519;28;20193;-79
2022/05/06 09:54:00;;;;;;;10.68;2.05;;;18.90;99.90;;;;;;5051988;28;20242;-78
2022/05/06 09:56:28;;;;;;;1.45;1.33;;;18.80;99.90;;;;;;5053074;28;20205;-78
2022/05/06 09:58:56;;;;;;;0.82;0.82;;;19.00;99.90;;;;;;5051949;28;20197;-78
2022/05/06 10:01:22;;;;;;;0.35;0.35;;;19.10;99.90;;;;;;5052208;28;20550;-79
2022/05/06 10:03:48;;;;;;;3.03;1.17;;;19.70;99.90;;;;;;5051478;28;20280;-79
2022/05/06 10:06:14;;;;;;;0.45;0.45;;;20.00;99.90;;;;;;5052884;28;20190;-79
2022/05/06 10:08:51;;;;;;;0.93;0.73;;;20.20;99.90;;;;;;5051435;28;20213;-79
2022/05/06 10:11:24;;;;;;;0.50;0.50;;;20.40;99.40;;;;;;5051441;28;20193;-78
2022/05/06 10:13:52;;;;;;;5.05;2.28;;;20.70;96.70;;;;;;5052847;28;20274;-79
2022/05/06 10:16:19;;;;;;;1.13;0.82;;;20.60;97.00;;;;;;5049159;28;20213;-79
2022/05/06 10:18:45;;;;;;;1.83;1.55;;;20.50;95.60;;;;;;5051540;28;20201;-79
2022/05/06 10:21:11;;;;;;;0.47;0.47;;;20.60;95.60;;;;;;5051496;28;20194;-79
2022/05/06 10:23:48;;;;;;;2.17;1.08;;;20.80;97.50;;;;;;5045438;28;20280;-77
2022/05/06 10:26:35;;;;;;;0.95;0.90;;;20.50;96.10;;;;;;5052694;28;20193;-79
2022/05/06 10:34:59;;;;;;;1.35;0.88;;;20.90;94.10;;;;;;5052606;28;20729;-78
2022/05/06 10:37:34;;;;;;;1.20;1.10;;;21.10;94.50;;;;;;5043258;28;20190;-79
2022/05/06 10:40:23;;;;;;;0.30;0.30;;;20.20;95.30;;;;;;5051465;28;20193;-78
2022/05/06 10:42:49;;;;;;;0.38;0.38;;;20.60;93.90;;;;;;5052501;28;20204;-78
2022/05/06 10:45:33;;;;;;;1.92;0.73;;;21.40;96.00;;;;;;5052627;28;20225;-78
2022/05/06 10:47:59;;;;;;;0.90;0.90;;;21.00;92.90;;;;;;5052755;28;20721;-78
2022/05/06 10:50:29;;;;;;;1.25;1.15;;;20.60;93.20;;;;;;5052584;28;20538;-78
2022/05/06 10:52:56;;;;;;;0.40;0.40;;;20.50;92.40;;;;;;5051024;28;20201;-78
2022/05/06 10:55:23;;;;;;;2.78;0.88;;;20.70;93.90;;;;;;5052872;28;20200;-78
2022/05/06 10:57:50;;;;;;;0.43;0.28;;;21.30;92.20;;;;;;5055254;28;20613;-78
2022/05/06 11:00:16;;;;;;;0.50;0.50;;;21.50;92.40;;;;;;5056324;28;20189;-79
2022/05/06 11:02:42;;;;;;;2.67;1.15;;;21.70;91.70;;;;;;5056246;28;20193;-79
2022/05/06 11:05:10;;;;;;;0.40;0.40;;;21.80;92.30;;;;;;5055265;28;20194;-80
2022/05/06 11:07:38;;;;;;;0.57;0.57;;;22.00;90.60;;;;;;5054596;28;20241;-79
2022/05/06 11:10:30;;;;;;;0.30;0.30;;;21.10;90.50;;;;;;5071505;28;20194;-79
2022/05/06 11:12:58;;;;;;;0.55;0.50;;;21.20;90.90;;;;;;5053770;28;20210;-78
2022/05/06 11:15:27;;;;;;;0.68;0.60;;;21.00;91.50;;;;;;5055938;28;20647;-79
2022/05/06 11:17:56;;;;;;;0.35;0.35;;;20.90;92.20;;;;;;5056100;28;20688;-78
2022/05/06 11:20:33;;;;;;;0.55;0.55;;;21.20;91.60;;;;;;5046405;28;20202;-79
2022/05/06 11:23:15;;;;;;;4.88;0.47;;;21.70;91.60;;;;;;5054626;28;20205;-78
2022/05/06 11:25:50;;;;;;;0.22;0.22;;;21.40;89.60;;;;;;5048884;28;20288;-78
2022/05/06 11:28:16;;;;;;;0.20;0.20;;;21.60;89.90;;;;;;5055846;28;20212;-78
2022/05/06 11:30:47;;;;;;;0.57;0.55;;;21.00;91.10;;;;;;5049052;28;20310;-78
2022/05/06 11:33:34;;;;;;;0.65;0.50;;;21.80;91.80;;;;;;5055436;28;20856;-78
2022/05/06 11:36:02;;;;;;;1.70;1.20;;;21.60;88.70;;;;;;5067993;28;20567;-78
2022/05/06 11:38:33;;;;;;;0.35;0.35;;;21.40;90.80;;;;;;5055165;28;20194;-78
2022/05/06 11:41:20;;;;;;;0.30;0.30;;;21.10;87.00;;;;;;5055389;28;20695;-78
2022/05/06 11:43:47;;;;;;;0.30;0.30;;;21.30;90.80;;;;;;5055275;28;20247;-78
2022/05/06 11:49:05;;;;;;;0.20;0.20;;;21.60;85.50;;;;;;5055635;28;20225;-78
2022/05/06 11:51:34;;;;;;;0.20;0.20;;;22.10;85.80;;;;;;5053405;28;20197;-79
2022/05/06 11:54:00;;;;;;;0.30;0.30;;;21.90;85.50;;;;;;5055626;28;20267;-79
2022/05/06 11:56:28;;;;;;;1.15;1.00;;;22.20;84.80;;;;;;5055093;28;20190;-79
2022/05/06 11:58:58;;;;;;;0.20;0.20;;;22.20;84.90;;;;;;5054079;28;20198;-79
2022/05/06 12:01:25;;;;;;;1.45;0.75;;;21.70;80.60;;;;;;5054858;28;20219;-79
2022/05/06 12:03:51;;;;;;;1.17;0.77;;;21.50;83.50;;;;;;5070786;28;20657;-79
2022/05/06 12:06:25;;;;;;;4.00;1.02;;;21.70;84.30;;;;;;5055003;28;20251;-79
2022/05/06 12:08:51;;;;;;;0.20;0.20;;;22.10;81.50;;;;;;5054808;28;20713;-79
2022/05/06 12:11:24;;;;;;;0.45;0.45;;;22.10;83.00;;;;;;5055185;28;20221;-79
2022/05/06 12:13:50;;;;;;;0.50;0.40;;;21.90;81.60;;;;;;5053833;28;20240;-79
2022/05/06 12:16:15;;;;;;;0.57;0.55;;;21.80;81.30;;;;;;5053567;28;20300;-79
2022/05/06 12:18:58;;;;;;;0.57;0.57;;;22.20;82.10;;;;;;5031452;28;20201;-78
2022/05/06 12:21:26;;;;;;;0.40;0.35;;;22.70;81.50;;;;;;5053285;28;20202;-80
2022/05/06 12:23:57;;;;;;;0.38;0.38;;;22.50;78.10;;;;;;5054918;28;20197;-78
2022/05/06 12:26:38;;;;;;;0.20;0.20;;;22.30;75.80;;;;;;5054487;28;20201;-79
2022/05/06 12:29:19;;;;;;;0.85;0.65;;;21.80;73.80;;;;;;5050934;28;20215;-78
2022/05/06 12:31:45;;;;;;;0.32;0.30;;;22.20;80.00;;;;;;5044898;28;20197;-79
2022/05/06 12:34:11;;;;;;;0.98;0.60;;;22.80;72.80;;;;;;5034688;28;20194;-79
2022/05/06 12:36:37;;;;;;;0.20;0.20;;;23.00;73.60;;;;;;5049942;28;20221;-76
2022/05/06 12:39:22;;;;;;;0.30;0.30;;;23.00;70.60;;;;;;5034647;28;20194;-75
2022/05/06 12:41:50;;;;;;;0.20;0.20;;;22.20;70.40;;;;;;5034703;28;20276;-76
2022/05/06 12:44:21;;;;;;;0.20;0.20;;;22.10;72.20;;;;;;5049841;28;20194;-76
2022/05/06 12:46:48;;;;;;;0.25;0.25;;;22.10;73.60;;;;;;5034209;28;20198;-78
2022/05/06 12:51:58;;;;;;;0.30;0.30;;;22.40;72.00;;;;;;5033923;28;20197;-78
2022/05/06 12:54:26;;;;;;;0.20;0.20;;;22.50;69.80;;;;;;5034237;28;20186;-79
2022/05/06 12:56:51;;;;;;;1.23;0.40;;;21.60;71.30;;;;;;5049437;28;20232;-78
2022/05/06 12:59:17;;;;;;;0.20;0.20;;;21.20;70.60;;;;;;5049474;28;20198;-78
2022/05/06 13:01:43;;;;;;;0.73;0.52;;;21.60;74.10;;;;;;5063861;28;20649;-78
2022/05/06 13:04:09;;;;;;;0.30;0.30;;;22.30;75.50;;;;;;5041016;28;20312;-79
2022/05/06 13:06:35;;;;;;;0.20;0.20;;;22.80;70.30;;;;;;5069102;28;20292;-79
2022/05/06 13:09:02;;;;;;;0.20;0.20;;;23.30;68.00;;;;;;5069234;28;20189;-79
2022/05/06 13:11:28;;;;;;;0.38;0.25;;;23.70;68.80;;;;;;5053573;28;20596;-79
2022/05/06 13:13:54;;;;;;;0.20;0.20;;;23.60;66.20;;;;;;5052627;28;20229;-78
2022/05/06 13:16:20;;;;;;;0.25;0.25;;;23.60;67.80;;;;;;5053749;28;20277;-79
2022/05/06 13:18:46;;;;;;;0.20;0.20;;;23.60;67.10;;;;;;5051720;28;20202;-79
2022/05/06 13:21:12;;;;;;;0.10;0.10;;;22.40;68.90;;;;;;5069203;28;20723;-78
2022/05/06 13:23:38;;;;;;;0.90;0.55;;;22.70;69.50;;;;;;5052177;28;20287;-77
2022/05/06 13:26:04;;;;;;;8.32;0.85;;;23.00;69.10;;;;;;5051853;28;20219;-79
2022/05/06 13:28:30;;;;;;;0.63;0.45;;;22.90;70.50;;;;;;5048588;28;20206;-78
2022/05/06 13:30:56;;;;;;;0.20;0.20;;;23.10;69.50;;;;;;5048881;28;20208;-79
2022/05/06 13:33:22;;;;;;;0.70;0.50;;;23.20;65.60;;;;;;5048741;28;20633;-79
2022/05/06 13:35:49;;;;;;;0.25;0.25;;;22.60;67.30;;;;;;5048919;28;20575;-78
2022/05/06 13:38:15;;;;;;;0.30;0.30;;;22.30;67.40;;;;;;5031926;28;20208;-78
2022/05/06 13:40:41;;;;;;;14.55;2.38;;;22.60;69.50;;;;;;5033175;28;20190;-78
2022/05/06 13:43:06;;;;;;;0.32;0.32;;;22.60;72.50;;;;;;5048777;28;20203;-78
2022/05/06 13:45:32;;;;;;;0.20;0.20;;;23.00;69.60;;;;;;5048290;28;20194;-78